createdAt,value
2023-03-21T00:00:59.358Z,79.37
2023-03-21T00:04:58.518Z,79.58
2023-03-21T00:08:57.156Z,79.87
2023-03-21T00:12:52.169Z,80.12
2023-03-21T00:16:48.725Z,80.35
2023-03-21T00:20:51.271Z,80.52
2023-03-21T00:24:48.845Z,80.14
2023-03-21T00:28:45.455Z,80.66
2023-03-21T00:32:49.294Z,81.11
2023-03-21T00:36:50.384Z,81.05
2023-03-21T00:40:32.968Z,81.22
2023-03-21T00:44:38.763Z,81.74
2023-03-21T00:48:28.668Z,81.04
2023-03-21T00:52:40.610Z,81.00
2023-03-21T00:56:44.826Z,80.14
2023-03-21T01:00:41.291Z,84.92
2023-03-21T01:04:31.926Z,84.06
2023-03-21T01:08:31.261Z,85.24
2023-03-21T01:12:23.922Z,88.45
2023-03-21T01:16:09.250Z,89.78
2023-03-21T01:20:04.693Z,90.62
2023-03-21T01:23:52.629Z,91.05
2023-03-21T01:27:40.973Z,90.63
2023-03-21T01:31:47.839Z,90.32
2023-03-21T01:35:48.029Z,90.56
2023-03-21T01:39:40.430Z,90.20
2023-03-21T01:43:42.953Z,89.80
2023-03-21T01:47:46.615Z,89.55
2023-03-21T01:51:42.617Z,89.09
2023-03-21T01:55:39.635Z,87.59
2023-03-21T01:59:43.458Z,87.58
2023-03-21T02:03:47.266Z,87.81
2023-03-21T02:07:48.358Z,88.25
2023-03-21T02:11:38.113Z,88.58
2023-03-21T02:15:34.608Z,88.99
2023-03-21T02:19:32.814Z,87.91
2023-03-21T02:23:42.311Z,87.23
2023-03-21T02:28:05.882Z,87.79
2023-03-21T02:32:34.880Z,87.84
2023-03-21T02:37:18.263Z,87.51
2023-03-21T02:41:40.068Z,86.69
2023-03-21T02:46:24.276Z,86.06
2023-03-21T02:50:22.423Z,86.42
2023-03-21T02:54:35.100Z,85.94
2023-03-21T02:58:42.816Z,85.74
2023-03-21T03:02:47.562Z,86.17
2023-03-21T03:06:53.237Z,86.29
2023-03-21T03:11:10.994Z,86.26
2023-03-21T03:15:16.214Z,87.02
2023-03-21T03:19:34.481Z,87.55
2023-03-21T03:23:45.963Z,87.86
2023-03-21T03:27:41.841Z,88.21
2023-03-21T03:31:45.470Z,88.09
2023-03-21T03:35:26.268Z,88.38
2023-03-21T03:39:15.940Z,88.44
2023-03-21T03:43:14.905Z,87.07
2023-03-21T03:47:04.261Z,86.82
2023-03-21T03:51:03.618Z,87.14
2023-03-21T03:55:07.332Z,86.77
2023-03-21T03:58:58.180Z,86.72
2023-03-21T04:02:46.009Z,86.27
2023-03-21T04:06:29.323Z,86.08
2023-03-21T04:10:29.402Z,86.66
2023-03-21T04:14:44.093Z,87.20
2023-03-21T04:18:39.547Z,87.13
2023-03-21T04:22:34.686Z,87.09
2023-03-21T04:26:38.530Z,87.08
2023-03-21T04:30:09.962Z,86.97
2023-03-21T04:34:00.122Z,87.35
2023-03-21T04:37:49.056Z,87.54
2023-03-21T04:41:44.291Z,87.79
2023-03-21T04:45:48.084Z,87.93
2023-03-21T04:49:45.168Z,87.62
2023-03-21T04:53:39.969Z,87.78
2023-03-21T04:57:39.869Z,88.00
2023-03-21T05:01:34.079Z,88.37
2023-03-21T05:05:11.967Z,88.62
2023-03-21T05:09:04.218Z,88.80
2023-03-21T05:13:00.457Z,89.05
2023-03-21T05:17:03.385Z,89.27
2023-03-21T05:20:53.230Z,89.25
2023-03-21T05:24:42.883Z,89.02
2023-03-21T05:28:27.341Z,89.16
2023-03-21T05:32:31.387Z,89.31
2023-03-21T05:36:55.115Z,89.35
2023-03-21T05:40:43.460Z,89.30
2023-03-21T05:44:37.300Z,89.35
2023-03-21T05:48:34.601Z,89.48
2023-03-21T05:52:38.174Z,89.27
2023-03-21T05:57:02.073Z,89.32
2023-03-21T06:01:06.336Z,89.25
2023-03-21T06:05:26.033Z,89.28
2023-03-21T06:09:38.259Z,88.61
2023-03-21T06:13:32.814Z,87.78
2023-03-21T06:17:36.477Z,87.51
2023-03-21T06:21:30.182Z,87.51
2023-03-21T06:25:04.312Z,87.55
2023-03-21T06:28:23.892Z,87.06
2023-03-21T06:32:05.841Z,87.28
2023-03-21T06:35:35.742Z,87.28
2023-03-21T06:39:00.321Z,87.23
2023-03-21T06:42:32.691Z,87.10
2023-03-21T06:46:06.265Z,87.41
2023-03-21T06:49:46.588Z,87.68
2023-03-21T06:53:20.694Z,87.30
2023-03-21T06:56:32.545Z,86.05
2023-03-21T06:59:41.160Z,85.03
2023-03-21T07:02:48.771Z,83.68
2023-03-21T07:05:53.751Z,83.26
2023-03-21T07:08:59.809Z,82.45
2023-03-21T07:12:10.183Z,80.43
2023-03-21T07:15:13.115Z,81.32
2023-03-21T07:18:23.730Z,80.62
2023-03-21T07:21:26.657Z,79.58
2023-03-21T07:24:29.562Z,80.92
2023-03-21T07:27:51.099Z,79.46
2023-03-21T07:31:05.451Z,81.16
2023-03-21T07:34:17.845Z,81.56
2023-03-21T07:37:23.991Z,81.23
2023-03-21T07:40:50.667Z,81.65
2023-03-21T07:43:59.352Z,81.87
2023-03-21T07:47:07.010Z,81.67
2023-03-21T07:51:05.811Z,82.14
2023-03-21T07:55:03.116Z,82.16
2023-03-21T07:58:46.178Z,82.36
2023-03-21T08:02:45.545Z,82.55
2023-03-21T08:06:16.881Z,82.93
2023-03-21T08:09:48.217Z,82.82
2023-03-21T08:13:37.962Z,82.65
2023-03-21T08:17:10.791Z,82.53
2023-03-21T08:21:14.785Z,83.01
2023-03-21T08:24:59.575Z,83.29
2023-03-21T08:29:03.331Z,83.60
2023-03-21T08:33:00.504Z,84.23
2023-03-21T08:36:51.054Z,85.21
2023-03-21T08:40:02.581Z,85.83
2023-03-21T08:44:06.250Z,86.66
2023-03-21T08:48:10.238Z,86.89
2023-03-21T08:52:11.749Z,86.86
2023-03-21T08:56:10.339Z,86.64
2023-03-21T09:00:14.110Z,87.29
2023-03-21T09:04:04.423Z,87.75
2023-03-21T09:08:07.685Z,88.50
2023-03-21T09:11:53.879Z,88.72
2023-03-21T09:15:37.168Z,88.76
2023-03-21T09:19:38.738Z,88.56
2023-03-21T09:23:56.576Z,87.73
2023-03-21T09:27:37.076Z,87.67
2023-03-21T09:30:54.811Z,87.44
2023-03-21T09:34:09.011Z,86.93
2023-03-21T09:37:22.056Z,86.18
2023-03-21T09:40:51.779Z,85.73
2023-03-21T09:44:32.052Z,85.03
2023-03-21T09:47:49.795Z,83.91
2023-03-21T09:50:55.929Z,84.12
2023-03-21T09:54:25.536Z,83.36
2023-03-21T09:57:43.252Z,82.92
2023-03-21T10:00:56.716Z,81.76
2023-03-21T10:04:14.244Z,81.90
2023-03-21T10:10:54.678Z,82.50
2023-03-21T10:14:07.907Z,83.26
2023-03-21T10:17:43.165Z,83.03
2023-03-21T10:20:50.729Z,83.58
2023-03-21T10:24:05.366Z,83.64
2023-03-21T10:27:13.436Z,82.94
2023-03-21T10:30:32.416Z,82.49
2023-03-21T10:33:47.734Z,81.84
2023-03-21T10:37:04.639Z,82.22
2023-03-21T10:40:15.685Z,81.27
2023-03-21T10:43:37.553Z,80.64
2023-03-21T10:46:55.425Z,79.25
2023-03-21T10:50:08.927Z,77.75
2023-03-21T10:53:25.412Z,74.80
2023-03-21T10:56:31.856Z,74.30
2023-03-21T10:59:39.943Z,72.30
2023-03-21T11:02:46.826Z,72.98
2023-03-21T11:05:56.372Z,72.54
2023-03-21T11:09:06.114Z,71.28
2023-03-21T11:12:28.413Z,72.76
2023-03-21T11:16:05.001Z,73.02
2023-03-21T11:19:30.887Z,73.30
2023-03-21T11:22:43.596Z,73.00
2023-03-21T11:25:51.115Z,72.85
2023-03-21T11:28:55.376Z,72.29
2023-03-21T11:32:22.727Z,71.47
2023-03-21T11:35:32.551Z,69.58
2023-03-21T11:38:40.254Z,69.10
2023-03-21T11:41:47.415Z,69.86
2023-03-21T11:44:59.980Z,70.60
2023-03-21T11:48:13.005Z,70.45
2023-03-21T11:51:21.867Z,70.08
2023-03-21T11:54:30.932Z,70.93
2023-03-21T11:57:39.958Z,69.98
2023-03-21T12:00:54.884Z,68.00
2023-03-21T12:04:44.937Z,68.23
2023-03-21T12:08:33.224Z,67.83
2023-03-21T12:11:39.019Z,68.86
2023-03-21T12:14:57.646Z,68.33
2023-03-21T12:18:12.485Z,68.42
2023-03-21T12:22:09.418Z,69.56
2023-03-21T12:25:20.357Z,68.40
2023-03-21T12:28:33.515Z,67.73
2023-03-21T12:32:15.551Z,67.29
2023-03-21T12:35:46.109Z,68.27
2023-03-21T12:39:04.375Z,68.48
2023-03-21T12:42:36.771Z,69.03
2023-03-21T12:45:47.283Z,68.81
2023-03-21T12:49:00.514Z,70.73
2023-03-21T12:52:32.894Z,72.46
2023-03-21T12:55:39.591Z,73.62
2023-03-21T12:58:59.088Z,74.20
2023-03-21T13:02:31.273Z,74.45
2023-03-21T13:05:39.101Z,74.29
2023-03-21T13:09:01.922Z,72.46
2023-03-21T13:12:28.841Z,71.16
2023-03-21T13:15:54.791Z,70.50
2023-03-21T13:19:13.379Z,71.16
2023-03-21T13:22:31.445Z,70.77
2023-03-21T13:25:42.537Z,70.35
2023-03-21T13:28:52.263Z,68.60
2023-03-21T13:32:12.507Z,69.69
2023-03-21T13:35:29.255Z,70.06
2023-03-21T13:38:40.060Z,69.58
2023-03-21T13:41:51.806Z,69.03
2023-03-21T13:44:56.765Z,69.29
2023-03-21T13:48:34.077Z,69.95
2023-03-21T13:51:40.103Z,70.86
2023-03-21T13:54:52.644Z,71.16
2023-03-21T13:57:58.834Z,71.21
2023-03-21T14:01:16.211Z,70.69
2023-03-21T14:04:41.984Z,70.49
2023-03-21T14:08:36.528Z,69.62
2023-03-21T14:11:46.709Z,68.69
2023-03-21T14:14:54.191Z,68.74
2023-03-21T14:18:16.312Z,68.39
2023-03-21T14:21:34.215Z,69.89
2023-03-21T14:24:41.356Z,70.36
2023-03-21T14:27:57.142Z,70.55
2023-03-21T14:31:07.274Z,70.26
2023-03-21T14:34:17.869Z,70.16
2023-03-21T14:37:31.850Z,69.76
2023-03-21T14:40:38.445Z,70.39
2023-03-21T14:43:47.436Z,70.99
2023-03-21T14:46:56.556Z,70.70
2023-03-21T14:50:13.611Z,70.97
2023-03-21T14:53:23.429Z,71.44
2023-03-21T14:56:39.678Z,71.46
2023-03-21T15:00:01.904Z,70.90
2023-03-21T15:03:18.790Z,71.30
2023-03-21T15:06:30.713Z,72.11
2023-03-21T15:09:38.419Z,72.01
2023-03-21T15:12:56.269Z,71.38
2023-03-21T15:16:00.465Z,72.02
2023-03-21T15:19:17.234Z,72.56
2023-03-21T15:22:57.911Z,72.82
2023-03-21T15:26:21.206Z,73.08
2023-03-21T15:29:41.986Z,73.44
2023-03-21T15:33:05.030Z,71.76
2023-03-21T15:36:10.123Z,71.27
2023-03-21T15:39:17.464Z,71.86
2023-03-21T15:43:13.243Z,72.63
2023-03-21T15:46:49.027Z,72.73
2023-03-21T15:50:19.984Z,73.02
2023-03-21T15:53:53.317Z,72.29
2023-03-21T15:57:59.890Z,72.52
2023-03-21T16:01:33.096Z,73.12
2023-03-21T16:05:27.640Z,73.48
2023-03-21T16:09:04.751Z,74.61
2023-03-21T16:12:44.331Z,74.92
2023-03-21T16:16:10.861Z,75.33
2023-03-21T16:19:52.633Z,75.43
2023-03-21T16:23:34.837Z,75.66
2023-03-21T16:27:22.576Z,75.58
2023-03-21T16:31:05.196Z,75.53
2023-03-21T16:35:01.790Z,75.47
2023-03-21T16:38:58.910Z,75.64
2023-03-21T16:42:47.628Z,76.33
2023-03-21T16:46:47.224Z,76.55
2023-03-21T16:50:35.750Z,76.88
2023-03-21T16:54:24.984Z,76.05
2023-03-21T16:58:21.654Z,75.79
2023-03-21T17:02:01.473Z,75.55
2023-03-21T17:05:55.085Z,75.44
2023-03-21T17:09:15.618Z,76.91
2023-03-21T17:12:54.437Z,77.40
2023-03-21T17:16:33.236Z,77.47
2023-03-21T17:20:05.920Z,77.44
2023-03-21T17:23:45.825Z,77.67
2023-03-21T17:27:27.360Z,78.03
2023-03-21T17:31:30.963Z,78.22
2023-03-21T17:35:34.740Z,78.40
2023-03-21T17:39:36.504Z,78.61
2023-03-21T17:43:01.387Z,79.04
2023-03-21T17:47:03.961Z,79.60
2023-03-21T17:51:03.438Z,79.55
2023-03-21T17:54:25.124Z,79.85
2023-03-21T17:58:05.515Z,80.07
2023-03-21T18:01:52.866Z,80.31
2023-03-21T18:05:43.407Z,80.32
2023-03-21T18:09:21.731Z,80.49
2023-03-21T18:12:48.837Z,80.80
2023-03-21T18:16:37.925Z,80.95
2023-03-21T18:20:51.707Z,80.92
2023-03-21T18:24:27.324Z,80.90
2023-03-21T18:28:31.380Z,81.19
2023-03-21T18:32:11.989Z,81.51
2023-03-21T18:35:46.764Z,81.62
2023-03-21T18:39:50.669Z,81.87
2023-03-21T18:44:05.868Z,82.16
2023-03-21T18:47:55.503Z,82.08
2023-03-21T18:51:44.365Z,82.24
2023-03-21T18:55:45.951Z,82.65
2023-03-21T18:59:36.466Z,82.78
2023-03-21T19:03:35.885Z,82.80
2023-03-21T19:07:21.995Z,82.63
2023-03-21T19:10:53.041Z,83.24
2023-03-21T19:14:20.371Z,84.76
2023-03-21T19:25:18.418Z,85.38
2023-03-21T19:29:22.200Z,85.32
2023-03-21T19:33:16.981Z,85.03
2023-03-21T19:36:57.863Z,85.20
2023-03-21T19:40:31.831Z,85.15
2023-03-21T19:44:02.958Z,85.14
2023-03-21T19:48:06.643Z,84.86
2023-03-21T19:52:00.641Z,84.49
2023-03-21T19:56:16.494Z,84.29
2023-03-21T19:59:55.197Z,84.03
2023-03-21T20:03:41.885Z,83.36
2023-03-21T20:07:45.674Z,82.96
2023-03-21T20:11:27.889Z,83.19
2023-03-21T20:15:26.843Z,83.33
2023-03-21T20:19:53.066Z,83.38
2023-03-21T20:23:39.864Z,83.44
2023-03-21T20:27:08.753Z,83.58
2023-03-21T20:31:02.647Z,83.71
2023-03-21T20:35:10.291Z,83.79
2023-03-21T20:38:58.795Z,83.76
2023-03-21T20:42:32.764Z,84.06
2023-03-21T20:46:22.997Z,83.47
2023-03-21T20:50:12.980Z,83.37
2023-03-21T20:57:20.044Z,83.83
2023-03-21T21:01:16.502Z,83.54
2023-03-21T21:05:35.446Z,83.82
2023-03-21T21:09:37.902Z,84.25
2023-03-21T21:13:41.472Z,84.32
2023-03-21T21:18:02.138Z,83.89
2023-03-21T21:21:59.268Z,84.12
2023-03-21T21:25:48.602Z,84.51
2023-03-21T21:29:31.282Z,85.11
2023-03-21T21:33:27.079Z,85.38
2023-03-21T21:37:23.407Z,85.58
2023-03-21T21:41:29.736Z,85.95
2023-03-21T21:45:18.348Z,86.38
2023-03-21T21:49:13.661Z,87.13
2023-03-21T21:53:04.377Z,87.22
2023-03-21T21:57:08.137Z,87.57
2023-03-21T22:00:56.330Z,87.56
2023-03-21T22:04:49.694Z,88.19
2023-03-21T22:08:35.221Z,88.39
2023-03-21T22:12:17.965Z,88.06
2023-03-21T22:16:14.416Z,87.98
2023-03-21T22:20:06.514Z,88.04
2023-03-21T22:23:38.708Z,87.92
2023-03-21T22:27:29.002Z,87.26
2023-03-21T22:31:27.253Z,87.73
2023-03-21T22:35:23.547Z,87.99
2023-03-21T22:39:27.305Z,87.28
2023-03-21T22:43:16.879Z,86.91
2023-03-21T22:47:20.483Z,86.96
2023-03-21T22:51:24.117Z,87.33
2023-03-21T22:55:12.293Z,86.84
2023-03-21T22:59:15.858Z,85.23
2023-03-21T23:03:10.846Z,84.81
2023-03-21T23:07:02.153Z,84.73
2023-03-21T23:11:05.880Z,84.55
2023-03-21T23:15:08.351Z,84.75
2023-03-21T23:19:04.963Z,84.73
2023-03-21T23:23:11.651Z,85.01
2023-03-21T23:27:08.479Z,85.24
2023-03-21T23:31:05.060Z,85.35
2023-03-21T23:34:53.930Z,86.07
2023-03-21T23:38:41.933Z,86.34
2023-03-21T23:42:39.631Z,86.59
2023-03-21T23:46:43.230Z,86.98
2023-03-21T23:50:39.893Z,87.15
2023-03-21T23:54:43.734Z,87.12
2023-03-21T23:58:29.503Z,86.98
